sensor_id;sensor_type;location;lat;lon;timestamp;pressure;altitude;pressure_sealevel;temperature;humidity
46722;BME280;32455;43.430;23.136;2022-12-07T00:00:36;98199.38;;;3.38;100.00
46722;BME280;32455;43.430;23.136;2022-12-07T00:03:21;98203.66;;;3.47;100.00
46722;BME280;32455;43.430;23.136;2022-12-07T00:06:09;98194.78;;;3.32;100.00
46722;BME280;32455;43.430;23.136;2022-12-07T00:08:55;98197.09;;;3.35;100.00
46722;BME280;32455;43.430;23.136;2022-12-07T00:11:40;98188.47;;;3.33;100.00
46722;BME280;32455;43.430;23.136;2022-12-07T00:14:26;98194.06;;;3.38;100.00
46722;BME280;32455;43.430;23.136;2022-12-07T00:17:11;98185.72;;;3.26;100.00
46722;BME280;32455;43.430;23.136;2022-12-07T00:19:56;98196.13;;;3.05;100.00
46722;BME280;32455;43.430;23.136;2022-12-07T00:22:42;98181.09;;;2.89;100.00
46722;BME280;32455;43.430;23.136;2022-12-07T00:25:28;98196.69;;;2.92;100.00
46722;BME280;32455;43.430;23.136;2022-12-07T00:28:13;98188.75;;;2.84;100.00
46722;BME280;32455;43.430;23.136;2022-12-07T00:31:10;98162.00;;;2.62;100.00
46722;BME280;32455;43.430;23.136;2022-12-07T00:33:57;98173.09;;;2.66;100.00
46722;BME280;32455;43.430;23.136;2022-12-07T00:36:43;98172.91;;;2.67;100.00
46722;BME280;32455;43.430;23.136;2022-12-07T00:39:28;98184.81;;;2.71;100.00
46722;BME280;32455;43.430;23.136;2022-12-07T00:42:14;98186.41;;;2.49;100.00
46722;BME280;32455;43.430;23.136;2022-12-07T00:44:59;98198.16;;;2.55;100.00
46722;BME280;32455;43.430;23.136;2022-12-07T00:47:45;98208.09;;;2.61;100.00
46722;BME280;32455;43.430;23.136;2022-12-07T00:50:30;98213.41;;;2.61;100.00
46722;BME280;32455;43.430;23.136;2022-12-07T00:53:16;98195.13;;;2.66;100.00
46722;BME280;32455;43.430;23.136;2022-12-07T00:56:06;98189.19;;;2.56;100.00
46722;BME280;32455;43.430;23.136;2022-12-07T00:58:53;98188.34;;;2.64;100.00
46722;BME280;32455;43.430;23.136;2022-12-07T01:01:39;98190.47;;;2.68;100.00
46722;BME280;32455;43.430;23.136;2022-12-07T01:04:24;98199.75;;;2.64;100.00
46722;BME280;32455;43.430;23.136;2022-12-07T01:07:11;98217.94;;;2.84;100.00
46722;BME280;32455;43.430;23.136;2022-12-07T01:09:56;98198.09;;;2.71;100.00
46722;BME280;32455;43.430;23.136;2022-12-07T01:12:41;98200.66;;;2.96;100.00
46722;BME280;32455;43.430;23.136;2022-12-07T01:15:27;98195.78;;;2.99;100.00
46722;BME280;32455;43.430;23.136;2022-12-07T01:18:12;98205.84;;;3.12;100.00
46722;BME280;32455;43.430;23.136;2022-12-07T01:21:04;98212.19;;;3.03;100.00
46722;BME280;32455;43.430;23.136;2022-12-07T01:23:51;98198.38;;;3.16;100.00
46722;BME280;32455;43.430;23.136;2022-12-07T01:26:36;98181.13;;;3.12;100.00
46722;BME280;32455;43.430;23.136;2022-12-07T01:29:22;98163.56;;;3.11;100.00
46722;BME280;32455;43.430;23.136;2022-12-07T01:32:07;98180.97;;;3.13;100.00
46722;BME280;32455;43.430;23.136;2022-12-07T01:34:52;98186.13;;;3.07;100.00
46722;BME280;32455;43.430;23.136;2022-12-07T01:37:39;98186.81;;;3.09;100.00
46722;BME280;32455;43.430;23.136;2022-12-07T01:40:24;98188.97;;;3.05;100.00
46722;BME280;32455;43.430;23.136;2022-12-07T01:43:19;98165.69;;;3.15;100.00
46722;BME280;32455;43.430;23.136;2022-12-07T01:46:05;98171.41;;;3.04;100.00
46722;BME280;32455;43.430;23.136;2022-12-07T01:48:50;98178.88;;;3.00;100.00
46722;BME280;32455;43.430;23.136;2022-12-07T01:51:37;98179.94;;;2.91;100.00
46722;BME280;32455;43.430;23.136;2022-12-07T01:54:24;98175.00;;;3.11;100.00
46722;BME280;32455;43.430;23.136;2022-12-07T01:57:11;98167.22;;;3.10;100.00
46722;BME280;32455;43.430;23.136;2022-12-07T02:00:00;98152.06;;;3.18;100.00
46722;BME280;32455;43.430;23.136;2022-12-07T02:03:03;98143.28;;;3.18;100.00
46722;BME280;32455;43.430;23.136;2022-12-07T02:05:51;98145.00;;;2.80;100.00
46722;BME280;32455;43.430;23.136;2022-12-07T02:08:37;98144.81;;;2.81;100.00
46722;BME280;32455;43.430;23.136;2022-12-07T02:11:23;98153.69;;;2.96;100.00
46722;BME280;32455;43.430;23.136;2022-12-07T02:14:09;98152.28;;;3.09;100.00
46722;BME280;32455;43.430;23.136;2022-12-07T02:17:37;98154.22;;;3.15;100.00
46722;BME280;32455;43.430;23.136;2022-12-07T02:20:54;98152.63;;;3.06;100.00
46722;BME280;32455;43.430;23.136;2022-12-07T02:26:43;98146.63;;;3.12;100.00
46722;BME280;32455;43.430;23.136;2022-12-07T02:30:00;98119.66;;;3.23;100.00
46722;BME280;32455;43.430;23.136;2022-12-07T02:36:04;98137.59;;;2.98;100.00
46722;BME280;32455;43.430;23.136;2022-12-07T02:39:12;98131.44;;;2.97;100.00
46722;BME280;32455;43.430;23.136;2022-12-07T02:42:09;98118.00;;;2.99;100.00
46722;BME280;32455;43.430;23.136;2022-12-07T02:44:59;98121.31;;;3.01;100.00
46722;BME280;32455;43.430;23.136;2022-12-07T02:47:49;98116.28;;;3.06;100.00
46722;BME280;32455;43.430;23.136;2022-12-07T02:50:36;98116.00;;;3.01;100.00
46722;BME280;32455;43.430;23.136;2022-12-07T02:53:33;98113.44;;;2.85;100.00
46722;BME280;32455;43.430;23.136;2022-12-07T02:56:35;98120.06;;;2.89;100.00
46722;BME280;32455;43.430;23.136;2022-12-07T03:05:21;98113.94;;;3.11;100.00
46722;BME280;32455;43.430;23.136;2022-12-07T03:11:30;98108.91;;;2.93;100.00
46722;BME280;32455;43.430;23.136;2022-12-07T03:14:28;98121.94;;;3.03;100.00
46722;BME280;32455;43.430;23.136;2022-12-07T03:17:24;98109.09;;;3.15;100.00
46722;BME280;32455;43.430;23.136;2022-12-07T03:20:13;98090.53;;;3.15;100.00
46722;BME280;32455;43.430;23.136;2022-12-07T03:23:04;98111.50;;;3.24;100.00
46722;BME280;32455;43.430;23.136;2022-12-07T03:25:56;98100.59;;;3.19;100.00
46722;BME280;32455;43.430;23.136;2022-12-07T03:28:49;98091.94;;;3.25;100.00
46722;BME280;32455;43.430;23.136;2022-12-07T03:31:38;98092.63;;;3.19;100.00
46722;BME280;32455;43.430;23.136;2022-12-07T03:34:41;98091.81;;;3.19;100.00
46722;BME280;32455;43.430;23.136;2022-12-07T03:37:34;98100.19;;;3.08;100.00
46722;BME280;32455;43.430;23.136;2022-12-07T03:40:40;98113.94;;;3.11;100.00
46722;BME280;32455;43.430;23.136;2022-12-07T03:43:28;98110.22;;;2.97;100.00
46722;BME280;32455;43.430;23.136;2022-12-07T03:46:41;98106.31;;;3.08;100.00
46722;BME280;32455;43.430;23.136;2022-12-07T03:49:44;98090.19;;;2.87;100.00
46722;BME280;32455;43.430;23.136;2022-12-07T03:52:42;98111.63;;;2.85;100.00
46722;BME280;32455;43.430;23.136;2022-12-07T03:55:32;98109.88;;;3.00;100.00
46722;BME280;32455;43.430;23.136;2022-12-07T03:58:21;98093.28;;;2.98;100.00
46722;BME280;32455;43.430;23.136;2022-12-07T04:01:08;98085.03;;;2.93;100.00
46722;BME280;32455;43.430;23.136;2022-12-07T04:03:56;98109.88;;;3.00;100.00
46722;BME280;32455;43.430;23.136;2022-12-07T04:06:42;98080.84;;;2.76;100.00
46722;BME280;32455;43.430;23.136;2022-12-07T04:09:27;98097.81;;;2.90;100.00
46722;BME280;32455;43.430;23.136;2022-12-07T04:12:13;98083.88;;;2.96;100.00
46722;BME280;32455;43.430;23.136;2022-12-07T04:14:58;98085.34;;;3.21;100.00
46722;BME280;32455;43.430;23.136;2022-12-07T04:17:43;98086.91;;;3.31;100.00
46722;BME280;32455;43.430;23.136;2022-12-07T04:20:29;98080.41;;;3.33;100.00
46722;BME280;32455;43.430;23.136;2022-12-07T04:23:13;98079.44;;;3.34;100.00
46722;BME280;32455;43.430;23.136;2022-12-07T04:25:59;98074.72;;;3.21;100.00
46722;BME280;32455;43.430;23.136;2022-12-07T04:28:45;98058.38;;;3.10;100.00
46722;BME280;32455;43.430;23.136;2022-12-07T04:31:30;98054.38;;;3.14;100.00
46722;BME280;32455;43.430;23.136;2022-12-07T04:34:18;98060.69;;;3.13;100.00
46722;BME280;32455;43.430;23.136;2022-12-07T04:37:03;98054.47;;;2.97;100.00
46722;BME280;32455;43.430;23.136;2022-12-07T04:39:49;98050.53;;;2.93;100.00
46722;BME280;32455;43.430;23.136;2022-12-07T04:42:35;98045.41;;;2.92;100.00
46722;BME280;32455;43.430;23.136;2022-12-07T04:45:20;98054.00;;;2.94;100.00
46722;BME280;32455;43.430;23.136;2022-12-07T04:48:06;98051.00;;;2.97;100.00
46722;BME280;32455;43.430;23.136;2022-12-07T04:50:53;98053.53;;;3.13;100.00
46722;BME280;32455;43.430;23.136;2022-12-07T04:53:38;98057.19;;;2.89;100.00
46722;BME280;32455;43.430;23.136;2022-12-07T04:56:25;98052.47;;;2.99;100.00
46722;BME280;32455;43.430;23.136;2022-12-07T04:59:12;98063.84;;;3.08;100.00
46722;BME280;32455;43.430;23.136;2022-12-07T05:01:57;98052.06;;;2.88;100.00
46722;BME280;32455;43.430;23.136;2022-12-07T05:04:43;98039.88;;;3.16;100.00
46722;BME280;32455;43.430;23.136;2022-12-07T05:07:29;98053.72;;;3.49;100.00
46722;BME280;32455;43.430;23.136;2022-12-07T05:10:15;98050.69;;;3.53;100.00
46722;BME280;32455;43.430;23.136;2022-12-07T05:13:01;98048.88;;;3.53;100.00
46722;BME280;32455;43.430;23.136;2022-12-07T05:15:49;98052.59;;;3.44;100.00
46722;BME280;32455;43.430;23.136;2022-12-07T05:18:35;98045.88;;;3.33;100.00
46722;BME280;32455;43.430;23.136;2022-12-07T05:21:21;98049.00;;;3.37;100.00
46722;BME280;32455;43.430;23.136;2022-12-07T05:24:08;98047.84;;;3.39;100.00
46722;BME280;32455;43.430;23.136;2022-12-07T05:26:55;98010.75;;;3.08;100.00
46722;BME280;32455;43.430;23.136;2022-12-07T05:29:40;98042.94;;;3.28;100.00
46722;BME280;32455;43.430;23.136;2022-12-07T05:32:26;98039.13;;;3.08;100.00
46722;BME280;32455;43.430;23.136;2022-12-07T05:35:12;98047.50;;;3.19;100.00
46722;BME280;32455;43.430;23.136;2022-12-07T05:37:58;98059.06;;;3.26;100.00
46722;BME280;32455;43.430;23.136;2022-12-07T05:40:43;98062.00;;;3.32;100.00
46722;BME280;32455;43.430;23.136;2022-12-07T05:43:29;98050.28;;;3.26;100.00
46722;BME280;32455;43.430;23.136;2022-12-07T05:46:15;98068.69;;;3.28;100.00
46722;BME280;32455;43.430;23.136;2022-12-07T05:49:01;98066.84;;;3.28;100.00
46722;BME280;32455;43.430;23.136;2022-12-07T05:51:47;98064.00;;;3.30;100.00
46722;BME280;32455;43.430;23.136;2022-12-07T05:54:32;98059.88;;;3.27;100.00
46722;BME280;32455;43.430;23.136;2022-12-07T05:57:18;98062.56;;;3.27;100.00
46722;BME280;32455;43.430;23.136;2022-12-07T06:00:05;98070.03;;;3.23;100.00
46722;BME280;32455;43.430;23.136;2022-12-07T06:02:51;98078.31;;;3.06;100.00
46722;BME280;32455;43.430;23.136;2022-12-07T06:05:36;98063.03;;;3.08;100.00
46722;BME280;32455;43.430;23.136;2022-12-07T06:08:21;98060.91;;;3.03;100.00
46722;BME280;32455;43.430;23.136;2022-12-07T06:11:07;98062.72;;;3.03;100.00
46722;BME280;32455;43.430;23.136;2022-12-07T06:14:11;98060.31;;;3.16;100.00
46722;BME280;32455;43.430;23.136;2022-12-07T06:16:57;98070.72;;;3.25;100.00
46722;BME280;32455;43.430;23.136;2022-12-07T06:19:43;98064.25;;;3.20;100.00
46722;BME280;32455;43.430;23.136;2022-12-07T06:22:29;98078.00;;;3.23;100.00
46722;BME280;32455;43.430;23.136;2022-12-07T06:25:14;98067.03;;;3.04;100.00
46722;BME280;32455;43.430;23.136;2022-12-07T06:28:01;98070.38;;;3.20;100.00
46722;BME280;32455;43.430;23.136;2022-12-07T06:30:47;98068.47;;;3.14;100.00
46722;BME280;32455;43.430;23.136;2022-12-07T06:33:33;98076.38;;;3.22;100.00
46722;BME280;32455;43.430;23.136;2022-12-07T06:36:18;98083.13;;;3.25;100.00
46722;BME280;32455;43.430;23.136;2022-12-07T06:39:04;98071.06;;;3.22;100.00
46722;BME280;32455;43.430;23.136;2022-12-07T06:41:50;98081.53;;;3.16;100.00
46722;BME280;32455;43.430;23.136;2022-12-07T06:44:37;98068.75;;;3.19;100.00
46722;BME280;32455;43.430;23.136;2022-12-07T06:47:22;98072.34;;;3.26;100.00
46722;BME280;32455;43.430;23.136;2022-12-07T06:50:08;98081.06;;;3.35;100.00
46722;BME280;32455;43.430;23.136;2022-12-07T06:52:54;98072.03;;;3.44;100.00
46722;BME280;32455;43.430;23.136;2022-12-07T06:55:40;98080.28;;;3.49;100.00
46722;BME280;32455;43.430;23.136;2022-12-07T06:58:26;98067.31;;;3.32;100.00
46722;BME280;32455;43.430;23.136;2022-12-07T07:01:15;98081.09;;;3.50;100.00
46722;BME280;32455;43.430;23.136;2022-12-07T07:04:01;98067.47;;;3.68;100.00
46722;BME280;32455;43.430;23.136;2022-12-07T07:06:47;98061.59;;;3.58;100.00
46722;BME280;32455;43.430;23.136;2022-12-07T07:09:33;98066.63;;;3.53;100.00
46722;BME280;32455;43.430;23.136;2022-12-07T07:12:18;98069.22;;;3.61;100.00
46722;BME280;32455;43.430;23.136;2022-12-07T07:15:04;98072.50;;;3.63;100.00
46722;BME280;32455;43.430;23.136;2022-12-07T07:17:50;98071.69;;;3.62;100.00
46722;BME280;32455;43.430;23.136;2022-12-07T07:20:36;98066.50;;;3.69;100.00
46722;BME280;32455;43.430;23.136;2022-12-07T07:23:23;98052.19;;;3.70;100.00
46722;BME280;32455;43.430;23.136;2022-12-07T07:26:08;98062.16;;;3.68;100.00
46722;BME280;32455;43.430;23.136;2022-12-07T07:28:54;98048.53;;;3.71;100.00
46722;BME280;32455;43.430;23.136;2022-12-07T07:31:40;98062.38;;;3.96;100.00
46722;BME280;32455;43.430;23.136;2022-12-07T07:34:25;98038.72;;;3.86;100.00
46722;BME280;32455;43.430;23.136;2022-12-07T07:37:11;98048.25;;;4.10;100.00
46722;BME280;32455;43.430;23.136;2022-12-07T07:39:57;98034.22;;;3.72;100.00
46722;BME280;32455;43.430;23.136;2022-12-07T07:42:42;98050.25;;;3.93;100.00
46722;BME280;32455;43.430;23.136;2022-12-07T07:45:27;98055.50;;;4.01;100.00
46722;BME280;32455;43.430;23.136;2022-12-07T07:48:13;98073.44;;;3.85;100.00
46722;BME280;32455;43.430;23.136;2022-12-07T07:50:58;98062.38;;;3.96;100.00
46722;BME280;32455;43.430;23.136;2022-12-07T07:53:44;98061.53;;;4.10;100.00
46722;BME280;32455;43.430;23.136;2022-12-07T07:56:29;98054.41;;;3.96;100.00
46722;BME280;32455;43.430;23.136;2022-12-07T07:59:16;98063.84;;;3.98;100.00
46722;BME280;32455;43.430;23.136;2022-12-07T08:02:01;98046.88;;;3.85;100.00
46722;BME280;32455;43.430;23.136;2022-12-07T08:04:46;98069.34;;;3.97;100.00
46722;BME280;32455;43.430;23.136;2022-12-07T08:07:31;98048.63;;;3.92;100.00
46722;BME280;32455;43.430;23.136;2022-12-07T08:10:17;98048.16;;;4.04;100.00
46722;BME280;32455;43.430;23.136;2022-12-07T08:13:03;98056.25;;;3.95;100.00
46722;BME280;32455;43.430;23.136;2022-12-07T08:16:03;98050.53;;;4.13;100.00
46722;BME280;32455;43.430;23.136;2022-12-07T08:18:49;98053.38;;;4.41;100.00
46722;BME280;32455;43.430;23.136;2022-12-07T08:21:34;98050.19;;;4.52;100.00
46722;BME280;32455;43.430;23.136;2022-12-07T08:24:20;98036.91;;;4.52;100.00
46722;BME280;32455;43.430;23.136;2022-12-07T08:27:05;98028.09;;;4.52;100.00
46722;BME280;32455;43.430;23.136;2022-12-07T08:29:50;98050.91;;;4.61;100.00
46722;BME280;32455;43.430;23.136;2022-12-07T08:32:36;98043.59;;;4.48;100.00
46722;BME280;32455;43.430;23.136;2022-12-07T08:35:21;98034.56;;;4.28;100.00
46722;BME280;32455;43.430;23.136;2022-12-07T08:38:07;98046.22;;;4.27;100.00
46722;BME280;32455;43.430;23.136;2022-12-07T08:40:59;98042.00;;;4.33;100.00
46722;BME280;32455;43.430;23.136;2022-12-07T08:43:44;98037.09;;;4.51;100.00
46722;BME280;32455;43.430;23.136;2022-12-07T08:49:26;98047.13;;;4.19;100.00
46722;BME280;32455;43.430;23.136;2022-12-07T08:52:13;98036.69;;;4.33;100.00
46722;BME280;32455;43.430;23.136;2022-12-07T08:55:00;98025.28;;;4.39;100.00
46722;BME280;32455;43.430;23.136;2022-12-07T08:57:47;98043.03;;;4.53;100.00
46722;BME280;32455;43.430;23.136;2022-12-07T09:00:32;98035.97;;;4.60;100.00
46722;BME280;32455;43.430;23.136;2022-12-07T09:03:18;98020.63;;;4.84;100.00
46722;BME280;32455;43.430;23.136;2022-12-07T09:06:03;98016.84;;;5.14;100.00
46722;BME280;32455;43.430;23.136;2022-12-07T09:08:52;98026.41;;;5.09;100.00
46722;BME280;32455;43.430;23.136;2022-12-07T09:11:41;98014.56;;;5.11;100.00
46722;BME280;32455;43.430;23.136;2022-12-07T09:14:26;98023.34;;;5.33;100.00
46722;BME280;32455;43.430;23.136;2022-12-07T09:17:12;98013.59;;;5.40;100.00
46722;BME280;32455;43.430;23.136;2022-12-07T09:19:57;98002.41;;;5.30;100.00
46722;BME280;32455;43.430;23.136;2022-12-07T09:22:43;98003.44;;;5.29;100.00
46722;BME280;32455;43.430;23.136;2022-12-07T09:25:27;98006.34;;;5.34;100.00
46722;BME280;32455;43.430;23.136;2022-12-07T09:28:12;98006.69;;;5.24;100.00
46722;BME280;32455;43.430;23.136;2022-12-07T09:30:57;97998.06;;;5.22;100.00
46722;BME280;32455;43.430;23.136;2022-12-07T09:33:42;98005.16;;;5.37;100.00
46722;BME280;32455;43.430;23.136;2022-12-07T09:36:28;97999.44;;;5.40;100.00
46722;BME280;32455;43.430;23.136;2022-12-07T09:39:14;98002.38;;;5.51;100.00
46722;BME280;32455;43.430;23.136;2022-12-07T09:42:03;97998.50;;;5.54;100.00
46722;BME280;32455;43.430;23.136;2022-12-07T09:44:48;97991.28;;;5.48;100.00
46722;BME280;32455;43.430;23.136;2022-12-07T09:47:34;98003.63;;;5.56;100.00
46722;BME280;32455;43.430;23.136;2022-12-07T09:50:22;97989.84;;;5.45;100.00
46722;BME280;32455;43.430;23.136;2022-12-07T09:53:34;97985.78;;;5.56;100.00
46722;BME280;32455;43.430;23.136;2022-12-07T09:56:19;97983.44;;;5.40;100.00
46722;BME280;32455;43.430;23.136;2022-12-07T09:59:05;97989.53;;;5.34;100.00
46722;BME280;32455;43.430;23.136;2022-12-07T10:01:50;97969.84;;;5.28;100.00
46722;BME280;32455;43.430;23.136;2022-12-07T10:04:37;97973.84;;;5.17;100.00
46722;BME280;32455;43.430;23.136;2022-12-07T10:07:23;97964.28;;;5.30;100.00
46722;BME280;32455;43.430;23.136;2022-12-07T10:10:19;97970.59;;;5.22;100.00
46722;BME280;32455;43.430;23.136;2022-12-07T10:13:10;97981.38;;;5.14;100.00
46722;BME280;32455;43.430;23.136;2022-12-07T10:15:57;97932.38;;;5.08;100.00
46722;BME280;32455;43.430;23.136;2022-12-07T10:18:42;97965.91;;;5.24;100.00
46722;BME280;32455;43.430;23.136;2022-12-07T10:21:28;97958.72;;;5.24;100.00
46722;BME280;32455;43.430;23.136;2022-12-07T10:24:14;97944.19;;;4.99;100.00
46722;BME280;32455;43.430;23.136;2022-12-07T10:27:01;97964.31;;;5.01;100.00
46722;BME280;32455;43.430;23.136;2022-12-07T10:29:49;97948.25;;;4.95;100.00
46722;BME280;32455;43.430;23.136;2022-12-07T10:32:36;97937.81;;;4.93;100.00
46722;BME280;32455;43.430;23.136;2022-12-07T10:35:29;97940.44;;;5.15;100.00
46722;BME280;32455;43.430;23.136;2022-12-07T10:38:16;97933.53;;;4.99;100.00
46722;BME280;32455;43.430;23.136;2022-12-07T10:41:06;97931.09;;;4.97;100.00
46722;BME280;32455;43.430;23.136;2022-12-07T10:43:54;97920.84;;;5.29;100.00
46722;BME280;32455;43.430;23.136;2022-12-07T11:11:16;97908.72;;;5.55;100.00
46722;BME280;32455;43.430;23.136;2022-12-07T11:14:36;97899.25;;;5.45;100.00
46722;BME280;32455;43.430;23.136;2022-12-07T11:17:33;97889.34;;;5.39;100.00
46722;BME280;32455;43.430;23.136;2022-12-07T11:23:52;97883.19;;;5.04;100.00
46722;BME280;32455;43.430;23.136;2022-12-07T11:30:18;97861.63;;;5.27;100.00
46722;BME280;32455;43.430;23.136;2022-12-07T11:42:06;97850.28;;;5.53;100.00
46722;BME280;32455;43.430;23.136;2022-12-07T11:44:59;97851.69;;;5.49;100.00
46722;BME280;32455;43.430;23.136;2022-12-07T11:47:58;97846.69;;;5.74;100.00
46722;BME280;32455;43.430;23.136;2022-12-07T11:50:51;97841.47;;;5.52;100.00
46722;BME280;32455;43.430;23.136;2022-12-07T11:54:14;97852.38;;;5.64;100.00
46722;BME280;32455;43.430;23.136;2022-12-07T11:57:03;97867.28;;;5.52;100.00
46722;BME280;32455;43.430;23.136;2022-12-07T11:59:59;97873.78;;;5.43;100.00
46722;BME280;32455;43.430;23.136;2022-12-07T12:05:40;97861.06;;;5.38;100.00
46722;BME280;32455;43.430;23.136;2022-12-07T12:08:33;97847.78;;;5.45;100.00
46722;BME280;32455;43.430;23.136;2022-12-07T12:17:41;97861.66;;;5.34;100.00
46722;BME280;32455;43.430;23.136;2022-12-07T12:21:02;97858.56;;;5.30;100.00
46722;BME280;32455;43.430;23.136;2022-12-07T12:24:25;97860.41;;;5.30;100.00
46722;BME280;32455;43.430;23.136;2022-12-07T12:27:24;97856.31;;;5.34;100.00
46722;BME280;32455;43.430;23.136;2022-12-07T12:30:35;97864.53;;;5.39;100.00
46722;BME280;32455;43.430;23.136;2022-12-07T12:33:28;97845.22;;;5.23;100.00
46722;BME280;32455;43.430;23.136;2022-12-07T12:42:01;97835.94;;;5.13;100.00
46722;BME280;32455;43.430;23.136;2022-12-07T12:45:28;97854.47;;;5.34;100.00
46722;BME280;32455;43.430;23.136;2022-12-07T12:51:37;97856.41;;;5.12;100.00
46722;BME280;32455;43.430;23.136;2022-12-07T12:54:27;97863.19;;;5.15;100.00
46722;BME280;32455;43.430;23.136;2022-12-07T12:57:27;97844.72;;;5.13;100.00
46722;BME280;32455;43.430;23.136;2022-12-07T13:00:22;97859.31;;;5.17;100.00
46722;BME280;32455;43.430;23.136;2022-12-07T13:03:26;97852.34;;;5.16;100.00
46722;BME280;32455;43.430;23.136;2022-12-07T13:06:28;97858.69;;;5.15;100.00
46722;BME280;32455;43.430;23.136;2022-12-07T13:09:22;97864.03;;;5.15;100.00
46722;BME280;32455;43.430;23.136;2022-12-07T13:12:16;97866.63;;;5.09;100.00
46722;BME280;32455;43.430;23.136;2022-12-07T13:15:01;97862.25;;;4.94;100.00
46722;BME280;32455;43.430;23.136;2022-12-07T13:17:56;97861.81;;;4.91;100.00
46722;BME280;32455;43.430;23.136;2022-12-07T13:20:48;97844.84;;;4.70;100.00
46722;BME280;32455;43.430;23.136;2022-12-07T13:23:38;97861.13;;;5.10;100.00
46722;BME280;32455;43.430;23.136;2022-12-07T13:29:20;97873.28;;;4.91;100.00
46722;BME280;32455;43.430;23.136;2022-12-07T13:32:24;97880.09;;;5.00;100.00
46722;BME280;32455;43.430;23.136;2022-12-07T13:35:32;97884.28;;;5.10;100.00
46722;BME280;32455;43.430;23.136;2022-12-07T13:38:31;97874.97;;;4.99;100.00
46722;BME280;32455;43.430;23.136;2022-12-07T13:41:20;97889.91;;;5.00;100.00
46722;BME280;32455;43.430;23.136;2022-12-07T13:44:14;97877.03;;;4.97;100.00
46722;BME280;32455;43.430;23.136;2022-12-07T13:49:53;97884.25;;;4.82;100.00
46722;BME280;32455;43.430;23.136;2022-12-07T13:52:44;97879.91;;;4.74;100.00
46722;BME280;32455;43.430;23.136;2022-12-07T13:55:30;97868.19;;;4.68;100.00
46722;BME280;32455;43.430;23.136;2022-12-07T13:58:16;97891.72;;;4.93;100.00
46722;BME280;32455;43.430;23.136;2022-12-07T14:01:01;97877.78;;;4.63;100.00
46722;BME280;32455;43.430;23.136;2022-12-07T14:03:47;97881.94;;;4.72;100.00
46722;BME280;32455;43.430;23.136;2022-12-07T14:06:32;97886.38;;;4.65;100.00
46722;BME280;32455;43.430;23.136;2022-12-07T14:09:21;97887.13;;;4.80;100.00
46722;BME280;32455;43.430;23.136;2022-12-07T14:12:08;97877.53;;;4.86;100.00
46722;BME280;32455;43.430;23.136;2022-12-07T14:14:54;97877.56;;;4.92;100.00
46722;BME280;32455;43.430;23.136;2022-12-07T14:17:50;97875.88;;;4.57;100.00
46722;BME280;32455;43.430;23.136;2022-12-07T14:20:38;97869.47;;;4.51;100.00
46722;BME280;32455;43.430;23.136;2022-12-07T14:23:26;97869.53;;;4.58;100.00
46722;BME280;32455;43.430;23.136;2022-12-07T14:26:19;97869.72;;;4.56;100.00
46722;BME280;32455;43.430;23.136;2022-12-07T14:29:31;97858.91;;;4.36;100.00
46722;BME280;32455;43.430;23.136;2022-12-07T14:35:14;97870.22;;;4.45;100.00
46722;BME280;32455;43.430;23.136;2022-12-07T14:38:00;97878.19;;;4.66;100.00
46722;BME280;32455;43.430;23.136;2022-12-07T14:40:45;97863.50;;;4.49;100.00
46722;BME280;32455;43.430;23.136;2022-12-07T14:43:31;97869.34;;;4.59;100.00
46722;BME280;32455;43.430;23.136;2022-12-07T14:46:16;97877.16;;;4.39;100.00
46722;BME280;32455;43.430;23.136;2022-12-07T14:49:00;97887.75;;;4.33;100.00
46722;BME280;32455;43.430;23.136;2022-12-07T14:51:47;97883.34;;;4.25;100.00
46722;BME280;32455;43.430;23.136;2022-12-07T14:54:33;97895.44;;;4.49;100.00
46722;BME280;32455;43.430;23.136;2022-12-07T14:57:19;97897.09;;;4.50;100.00
46722;BME280;32455;43.430;23.136;2022-12-07T15:00:05;97895.50;;;4.56;100.00
46722;BME280;32455;43.430;23.136;2022-12-07T15:02:51;97895.56;;;4.62;100.00
46722;BME280;32455;43.430;23.136;2022-12-07T15:05:36;97897.81;;;4.59;100.00
46722;BME280;32455;43.430;23.136;2022-12-07T15:08:23;97884.31;;;4.39;100.00
46722;BME280;32455;43.430;23.136;2022-12-07T15:11:13;97872.72;;;4.25;100.00
46722;BME280;32455;43.430;23.136;2022-12-07T15:13:59;97884.91;;;4.41;100.00
46722;BME280;32455;43.430;23.136;2022-12-07T15:16:53;97892.38;;;4.45;100.00
46722;BME280;32455;43.430;23.136;2022-12-07T15:19:38;97899.91;;;4.42;100.00
46722;BME280;32455;43.430;23.136;2022-12-07T15:22:24;97891.78;;;4.50;100.00
46722;BME280;32455;43.430;23.136;2022-12-07T15:25:13;97902.16;;;4.45;100.00
46722;BME280;32455;43.430;23.136;2022-12-07T15:27:59;97903.69;;;4.33;100.00
46722;BME280;32455;43.430;23.136;2022-12-07T15:30:45;97885.06;;;4.33;100.00
46722;BME280;32455;43.430;23.136;2022-12-07T15:33:30;97906.19;;;4.41;100.00
46722;BME280;32455;43.430;23.136;2022-12-07T15:36:24;97894.63;;;4.48;100.00
46722;BME280;32455;43.430;23.136;2022-12-07T15:39:10;97895.50;;;4.34;100.00
46722;BME280;32455;43.430;23.136;2022-12-07T15:41:56;97895.31;;;4.36;100.00
46722;BME280;32455;43.430;23.136;2022-12-07T15:44:42;97895.75;;;4.39;100.00
46722;BME280;32455;43.430;23.136;2022-12-07T15:47:47;97902.22;;;4.30;100.00
46722;BME280;32455;43.430;23.136;2022-12-07T15:50:32;97906.72;;;4.51;100.00
46722;BME280;32455;43.430;23.136;2022-12-07T15:53:17;97900.34;;;4.45;100.00
46722;BME280;32455;43.430;23.136;2022-12-07T15:56:06;97916.34;;;4.52;100.00
46722;BME280;32455;43.430;23.136;2022-12-07T15:58:53;97911.09;;;4.59;100.00
46722;BME280;32455;43.430;23.136;2022-12-07T16:01:38;97913.88;;;4.50;100.00
46722;BME280;32455;43.430;23.136;2022-12-07T16:04:27;97909.56;;;4.49;100.00
46722;BME280;32455;43.430;23.136;2022-12-07T16:07:14;97915.28;;;4.46;100.00
46722;BME280;32455;43.430;23.136;2022-12-07T16:10:00;97901.66;;;4.35;100.00